Time;durP1;ratioP1;P1;durP2;ratioP2;P2;SDS_P1;SDS_P2;PMS_P1;PMS_P2;Temp;Humidity;BMP_temperature;BMP_pressure;BME280_temperature;BME280_humidity;BME280_pressure;Samples;Min_cycle;Max_cycle;Signal;HPM_P1;HPM_P2
2022/06/15 00:01:25;;;;;;;10.25;4.22;;;;;;;20.33;100.00;101861.09;5056471;28;20057;-50
2022/06/15 00:03:52;;;;;;;11.17;4.57;;;;;;;20.17;100.00;101854.47;5076830;28;20057;-50
2022/06/15 00:06:26;;;;;;;14.40;4.30;;;;;;;20.31;100.00;101856.97;5071240;28;20261;-50
2022/06/15 00:08:54;;;;;;;9.93;4.83;;;;;;;20.35;100.00;101860.88;5095741;28;20280;-49
2022/06/15 00:11:26;;;;;;;10.50;4.10;;;;;;;19.97;100.00;101845.84;5077281;28;20272;-48
2022/06/15 00:13:52;;;;;;;9.03;3.93;;;;;;;20.18;100.00;101849.84;5055252;28;20287;-50
2022/06/15 00:16:18;;;;;;;12.00;4.30;;;;;;;20.45;100.00;101849.41;5079708;28;20283;-47
2022/06/15 00:18:45;;;;;;;10.68;4.43;;;;;;;20.04;100.00;101849.25;5064704;28;20284;-49
2022/06/15 00:21:13;;;;;;;10.57;4.30;;;;;;;20.29;100.00;101859.91;5096293;28;20032;-50
2022/06/15 00:23:39;;;;;;;12.83;5.63;;;;;;;20.22;100.00;101852.94;5097437;28;20297;-49
2022/06/15 00:26:05;;;;;;;8.88;4.32;;;;;;;20.24;100.00;101853.53;5085496;28;20280;-48
2022/06/15 00:28:31;;;;;;;11.55;4.85;;;;;;;19.74;100.00;101852.84;5095419;28;20064;-48
2022/06/15 00:30:57;;;;;;;9.50;4.27;;;;;;;19.34;100.00;101843.41;5095618;28;20088;-48
2022/06/15 00:33:24;;;;;;;10.93;4.10;;;;;;;19.78;100.00;101854.88;5096274;28;20269;-49
2022/06/15 00:35:58;;;;;;;11.68;4.28;;;;;;;19.69;100.00;101852.72;5096009;28;20123;-47
2022/06/15 00:38:26;;;;;;;13.00;4.67;;;;;;;19.66;100.00;101854.00;5095004;28;20058;-49
2022/06/15 00:40:53;;;;;;;12.83;4.37;;;;;;;20.08;100.00;101849.63;5078756;28;20291;-50
2022/06/15 00:43:49;;;;;;;9.32;4.80;;;;;;;19.59;100.00;101856.81;5096234;28;20269;-53
2022/06/15 00:46:37;;;;;;;10.23;4.43;;;;;;;19.59;100.00;101845.16;5081154;28;20049;-51
2022/06/15 00:49:15;;;;;;;12.40;4.80;;;;;;;19.31;100.00;101847.41;5095574;28;20273;-50
2022/06/15 00:51:42;;;;;;;7.47;4.20;;;;;;;19.42;100.00;101840.38;5093780;28;20324;-47
2022/06/15 00:54:08;;;;;;;7.82;4.55;;;;;;;19.95;100.00;101845.25;5085976;28;20273;-50
2022/06/15 00:56:36;;;;;;;10.68;4.55;;;;;;;19.86;100.00;101834.72;5095088;28;20096;-53
2022/06/15 00:59:26;;;;;;;9.53;4.73;;;;;;;19.26;100.00;101828.28;5084763;28;20042;-51
2022/06/15 01:01:52;;;;;;;13.60;4.50;;;;;;;20.98;100.00;101839.38;5096252;28;20268;-49
2022/06/15 01:04:19;;;;;;;7.40;4.25;;;;;;;20.00;100.00;101835.34;5095014;28;20273;-48
2022/06/15 01:07:12;;;;;;;10.17;5.00;;;;;;;19.69;100.00;101829.13;5094714;28;20070;-50
2022/06/15 01:09:47;;;;;;;10.73;4.43;;;;;;;19.00;100.00;101826.75;5093745;28;20284;-48
2022/06/15 01:12:35;;;;;;;15.10;4.37;;;;;;;19.41;100.00;101829.78;5096674;28;20315;-53
2022/06/15 01:15:39;;;;;;;9.87;4.53;;;;;;;20.28;100.00;101830.25;5094775;28;20300;-53
2022/06/15 01:18:24;;;;;;;9.50;4.10;;;;;;;20.00;100.00;101829.09;5093889;28;20277;-51
2022/06/15 01:21:03;;;;;;;7.40;4.53;;;;;;;19.65;100.00;101836.06;5084810;28;20286;-53
2022/06/15 01:23:41;;;;;;;8.47;4.00;;;;;;;20.24;100.00;101829.94;5093315;28;20332;-53
2022/06/15 01:26:34;;;;;;;11.70;3.67;;;;;;;20.19;100.00;101833.34;5084251;28;20273;-52
2022/06/15 01:29:35;;;;;;;9.47;4.23;;;;;;;19.60;100.00;101825.91;5083582;28;20339;-52
2022/06/15 01:32:13;;;;;;;6.80;4.03;;;;;;;20.12;100.00;101829.09;5096168;28;20340;-53
2022/06/15 01:34:53;;;;;;;11.87;4.40;;;;;;;20.35;100.00;101833.72;5094504;28;20261;-52
2022/06/15 01:37:33;;;;;;;13.70;4.90;;;;;;;19.95;100.00;101826.25;5079361;28;20257;-54
2022/06/15 01:40:16;;;;;;;13.60;4.40;;;;;;;19.98;100.00;101826.63;5094232;28;20281;-49
2022/06/15 01:43:08;;;;;;;14.03;4.40;;;;;;;20.29;100.00;101824.59;5093524;28;20332;-50
2022/06/15 01:45:37;;;;;;;12.40;4.83;;;;;;;19.82;100.00;101821.84;5085013;28;20266;-47
2022/06/15 01:48:08;;;;;;;14.37;4.60;;;;;;;19.48;100.00;101825.06;5082664;28;20278;-53
2022/06/15 01:50:41;;;;;;;7.10;3.87;;;;;;;19.06;100.00;101815.84;5074273;28;20269;-50
2022/06/15 01:53:16;;;;;;;10.30;4.10;;;;;;;19.06;100.00;101818.53;5080382;28;20423;-52
2022/06/15 01:56:00;;;;;;;9.43;4.53;;;;;;;20.39;100.00;101821.28;5081469;28;20257;-53
2022/06/15 01:58:30;;;;;;;9.30;4.23;;;;;;;20.09;100.00;101816.81;5082054;28;20349;-51
2022/06/15 02:01:15;;;;;;;7.27;3.70;;;;;;;19.96;100.00;101809.75;5075900;28;20277;-51
2022/06/15 02:03:59;;;;;;;12.07;4.17;;;;;;;19.45;100.00;101810.06;5082769;28;20345;-48
2022/06/15 02:06:36;;;;;;;9.80;4.17;;;;;;;19.71;100.00;101810.72;5085942;28;20307;-50
2022/06/15 02:09:20;;;;;;;13.70;3.35;;;;;;;19.64;100.00;101810.00;5094452;28;20352;-50
2022/06/15 02:11:48;;;;;;;7.27;4.43;;;;;;;18.84;100.00;101806.50;5074825;28;20057;-48
2022/06/15 02:14:34;;;;;;;12.67;4.00;;;;;;;19.49;100.00;101802.31;5080936;28;20276;-50
2022/06/15 02:17:07;;;;;;;7.83;3.77;;;;;;;19.36;100.00;101797.91;5094441;28;20281;-50
2022/06/15 02:19:43;;;;;;;11.50;3.73;;;;;;;18.42;100.00;101797.16;5077681;28;20293;-52
2022/06/15 02:22:17;;;;;;;8.10;4.57;;;;;;;18.57;100.00;101795.97;5094504;28;20280;-50
2022/06/15 02:24:47;;;;;;;10.50;4.50;;;;;;;19.15;100.00;101793.84;5062280;28;20261;-47
2022/06/15 02:27:14;;;;;;;12.40;4.73;;;;;;;19.60;100.00;101792.53;5095392;28;20269;-52
2022/06/15 02:29:57;;;;;;;9.70;3.87;;;;;;;20.18;100.00;101798.25;5064615;28;20307;-50
2022/06/15 02:32:24;;;;;;;7.93;3.87;;;;;;;21.02;100.00;101798.94;5082015;28;20292;-52
2022/06/15 02:34:49;;;;;;;7.43;3.95;;;;;;;20.50;100.00;101806.03;5079733;28;20277;-48
2022/06/15 02:37:15;;;;;;;8.40;4.00;;;;;;;18.75;100.00;101795.13;5083623;28;20044;-52
2022/06/15 02:39:41;;;;;;;21.40;4.07;;;;;;;18.00;100.00;101797.75;5081261;28;20059;-48
2022/06/15 02:42:23;;;;;;;11.03;4.07;;;;;;;18.07;100.00;101795.03;5082793;28;20035;-48
2022/06/15 02:44:57;;;;;;;9.43;4.30;;;;;;;18.40;100.00;101784.91;5085686;28;20278;-48
2022/06/15 02:47:28;;;;;;;10.10;4.70;;;;;;;19.11;100.00;101789.91;5074165;28;20280;-50
2022/06/15 02:49:55;;;;;;;7.17;4.27;;;;;;;19.22;100.00;101797.28;5082967;28;20340;-52
2022/06/15 02:52:28;;;;;;;11.00;4.60;;;;;;;19.38;100.00;101795.78;5082481;28;20264;-48
2022/06/15 02:54:55;;;;;;;7.27;4.03;;;;;;;18.05;100.00;101794.44;5082518;28;20659;-50
2022/06/15 02:57:25;;;;;;;15.17;4.47;;;;;;;18.14;100.00;101797.69;5090921;28;20257;-49
2022/06/15 02:59:51;;;;;;;8.83;4.30;;;;;;;17.82;100.00;101787.72;5075316;28;20281;-50
2022/06/15 03:02:21;;;;;;;9.87;4.13;;;;;;;18.01;100.00;101782.38;5081072;28;20292;-48
2022/06/15 03:04:50;;;;;;;12.13;3.93;;;;;;;17.91;100.00;101786.38;5084987;28;20287;-52
2022/06/15 03:07:16;;;;;;;10.32;4.38;;;;;;;18.32;100.00;101783.34;5088522;28;20315;-47
2022/06/15 03:09:42;;;;;;;15.77;4.13;;;;;;;19.17;100.00;101787.13;5092886;28;20055;-49
2022/06/15 03:12:10;;;;;;;;;;;;;;;19.10;100.00;101782.84;5077939;28;20308;-49
2022/06/15 03:14:36;;;;;;;12.32;3.58;;;;;;;19.15;100.00;101788.41;5081859;28;19998;-50
2022/06/15 03:17:05;;;;;;;10.90;4.27;;;;;;;18.99;100.00;101782.56;5077789;28;20055;-49
2022/06/15 03:19:49;;;;;;;13.80;4.40;;;;;;;18.20;100.00;101786.75;5085010;28;20297;-50
2022/06/15 03:22:16;;;;;;;;;;;;;;;17.91;100.00;101783.69;5086649;28;20333;-51
2022/06/15 03:24:45;;;;;;;13.23;4.10;;;;;;;18.04;100.00;101781.94;5086226;28;19940;-52
2022/06/15 03:27:13;;;;;;;10.57;4.67;;;;;;;18.16;100.00;101780.16;5082698;28;20323;-52
2022/06/15 03:29:42;;;;;;;12.93;4.47;;;;;;;17.88;100.00;101786.03;5099306;28;20317;-49
2022/06/15 03:32:14;;;;;;;9.33;4.60;;;;;;;17.86;100.00;101782.69;5098053;28;20293;-51
2022/06/15 03:35:02;;;;;;;8.77;4.07;;;;;;;17.91;100.00;101780.16;5084729;28;20277;-51
2022/06/15 03:37:31;;;;;;;12.13;5.07;;;;;;;17.83;100.00;101780.41;5084787;28;20296;-47
2022/06/15 03:40:12;;;;;;;31.63;14.63;;;;;;;17.85;100.00;101786.44;5084177;28;20288;-49
2022/06/15 03:42:42;;;;;;;18.40;8.93;;;;;;;17.86;100.00;101783.53;5091931;28;20277;-49
2022/06/15 03:45:12;;;;;;;14.93;5.97;;;;;;;17.78;100.00;101783.81;5071905;28;20329;-50
2022/06/15 03:47:38;;;;;;;12.80;6.40;;;;;;;17.88;100.00;101780.59;5080507;28;20283;-52
2022/06/15 03:50:06;;;;;;;26.80;12.60;;;;;;;17.77;100.00;101792.97;5096627;28;20261;-54
2022/06/15 03:52:32;;;;;;;8.60;4.73;;;;;;;17.70;100.00;101792.19;5063129;28;20340;-53
2022/06/15 03:54:58;;;;;;;10.75;5.28;;;;;;;17.73;100.00;101789.03;5084313;28;20304;-47
2022/06/15 03:57:24;;;;;;;10.70;5.47;;;;;;;17.59;100.00;101797.25;5083680;28;20033;-49
2022/06/15 03:59:52;;;;;;;30.73;14.67;;;;;;;18.16;100.00;101799.09;5085429;28;20028;-53
2022/06/15 04:02:40;;;;;;;39.30;18.50;;;;;;;17.89;100.00;101790.38;5094527;28;20280;-53
2022/06/15 04:05:18;;;;;;;24.90;11.13;;;;;;;18.34;100.00;101786.63;5081461;28;20284;-47
2022/06/15 04:10:33;;;;;;;52.13;22.13;;;;;;;18.27;100.00;101794.00;5080802;28;20285;-54
2022/06/15 04:13:01;;;;;;;26.93;11.20;;;;;;;18.05;100.00;101789.00;5088589;28;20280;-50
2022/06/15 04:15:26;;;;;;;13.77;5.78;;;;;;;18.23;100.00;101788.22;5081759;28;20273;-49
2022/06/15 04:17:52;;;;;;;19.38;9.18;;;;;;;18.28;100.00;101782.94;5085392;28;20037;-51
2022/06/15 04:20:34;;;;;;;19.37;9.57;;;;;;;18.21;100.00;101784.91;5080459;28;20055;-53
2022/06/15 04:23:19;;;;;;;11.33;4.67;;;;;;;18.00;100.00;101789.63;5083609;28;20269;-53
2022/06/15 04:25:47;;;;;;;49.37;19.57;;;;;;;18.58;100.00;101782.22;5087438;28;20265;-50
2022/06/15 04:28:15;;;;;;;37.60;17.43;;;;;;;18.29;100.00;101789.19;5081899;28;20288;-53
2022/06/15 04:30:41;;;;;;;27.50;8.87;;;;;;;18.33;100.00;101798.53;5085742;28;20269;-52
2022/06/15 04:33:08;;;;;;;24.48;6.38;;;;;;;18.16;100.00;101792.88;5064272;28;20308;-52
2022/06/15 04:35:34;;;;;;;30.40;10.00;;;;;;;18.22;100.00;101793.84;5080618;28;20063;-52
2022/06/15 04:38:03;;;;;;;25.63;9.40;;;;;;;18.27;100.00;101796.72;5081115;28;20750;-55
2022/06/15 04:40:37;;;;;;;8.57;4.63;;;;;;;18.24;100.00;101797.97;5080593;28;20311;-55
2022/06/15 04:43:05;;;;;;;12.03;4.57;;;;;;;18.41;100.00;101787.38;5082612;28;20289;-49
2022/06/15 04:45:31;;;;;;;11.60;4.47;;;;;;;18.34;100.00;101792.06;5079598;28;20277;-49
2022/06/15 04:48:03;;;;;;;14.33;4.30;;;;;;;18.31;100.00;101790.63;5081017;28;20275;-52
2022/06/15 04:50:30;;;;;;;14.55;4.65;;;;;;;18.03;100.00;101801.94;5080419;28;20284;-51
2022/06/15 04:52:57;;;;;;;13.67;5.53;;;;;;;18.13;100.00;101802.25;5079689;28;20050;-52
2022/06/15 04:55:24;;;;;;;8.20;4.50;;;;;;;18.48;100.00;101796.28;5078168;28;20312;-51
2022/06/15 04:57:54;;;;;;;15.37;4.50;;;;;;;18.77;100.00;101793.03;5081197;28;20333;-52
2022/06/15 05:00:24;;;;;;;12.37;4.33;;;;;;;18.94;100.00;101801.38;5082782;28;20390;-51
2022/06/15 05:02:51;;;;;;;14.07;4.27;;;;;;;18.79;100.00;101799.03;5085416;28;20277;-52
2022/06/15 05:05:21;;;;;;;10.80;4.60;;;;;;;19.11;100.00;101795.34;5087993;28;20292;-51
2022/06/15 05:07:47;;;;;;;12.40;4.03;;;;;;;19.09;100.00;101800.16;5082365;28;20285;-52
2022/06/15 05:10:18;;;;;;;16.38;5.45;;;;;;;19.10;100.00;101802.66;5085011;28;20345;-55
2022/06/15 05:12:47;;;;;;;12.43;4.70;;;;;;;19.14;100.00;101798.41;5085866;28;20043;-52
2022/06/15 05:15:13;;;;;;;;;;;;;;;18.72;100.00;101798.31;5079203;28;20304;-50
2022/06/15 05:17:41;;;;;;;11.27;4.60;;;;;;;18.49;100.00;101800.66;5087046;28;19916;-52
2022/06/15 05:20:09;;;;;;;17.93;4.27;;;;;;;18.47;100.00;101804.63;5086055;28;20289;-50
2022/06/15 05:22:36;;;;;;;10.47;5.10;;;;;;;18.64;100.00;101794.00;5078909;28;20273;-53
2022/06/15 05:25:08;;;;;;;20.30;5.27;;;;;;;18.57;100.00;101793.28;5080654;28;20269;-50
2022/06/15 05:27:35;;;;;;;9.20;4.10;;;;;;;18.60;100.00;101792.81;5083359;28;20276;-53
2022/06/15 05:30:01;;;;;;;13.03;5.77;;;;;;;18.65;100.00;101792.97;5089064;28;20261;-49
2022/06/15 05:32:26;;;;;;;7.95;3.90;;;;;;;18.36;100.00;101795.38;5081982;28;20289;-52
2022/06/15 05:34:54;;;;;;;9.80;4.07;;;;;;;18.62;100.00;101791.53;5080215;28;20032;-50
2022/06/15 05:37:23;;;;;;;8.93;4.30;;;;;;;18.90;100.00;101795.56;5082419;28;20048;-49
2022/06/15 05:39:49;;;;;;;15.63;4.77;;;;;;;19.13;100.00;101794.06;5073510;28;20281;-54
2022/06/15 05:42:16;;;;;;;9.23;3.80;;;;;;;19.23;100.00;101796.22;5090003;28;20268;-48
2022/06/15 05:44:51;;;;;;;9.90;4.63;;;;;;;19.31;100.00;101790.47;5078891;28;20297;-52
2022/06/15 05:47:16;;;;;;;15.13;4.43;;;;;;;19.23;100.00;101804.34;5077134;28;20279;-50
2022/06/15 05:50:04;;;;;;;;;;;;;;;19.28;100.00;101796.34;5075300;28;20841;-50
2022/06/15 05:52:39;;;;;;;15.10;4.30;;;;;;;19.79;100.00;101801.41;5078847;28;19912;-52
2022/06/15 05:55:06;;;;;;;12.43;4.17;;;;;;;19.61;100.00;101807.75;5080529;28;20269;-53
2022/06/15 05:57:32;;;;;;;12.05;4.60;;;;;;;19.73;100.00;101800.47;5093455;28;20280;-48
2022/06/15 05:59:57;;;;;;;17.50;4.93;;;;;;;19.62;100.00;101807.53;5089410;28;20052;-50
2022/06/15 06:02:27;;;;;;;12.52;4.22;;;;;;;19.91;100.00;101807.72;5091882;28;20028;-51
2022/06/15 06:04:53;;;;;;;14.67;4.37;;;;;;;19.80;100.00;101811.19;5092173;28;20040;-48
2022/06/15 06:07:21;;;;;;;13.47;3.93;;;;;;;20.40;100.00;101811.25;5092348;28;20273;-53
2022/06/15 06:09:47;;;;;;;12.03;4.10;;;;;;;19.88;100.00;101810.03;5092297;28;20349;-50
2022/06/15 06:12:13;;;;;;;;;;;;;;;19.80;100.00;101800.34;5089496;28;20291;-55
2022/06/15 06:14:40;;;;;;;14.77;4.60;;;;;;;20.08;100.00;101804.31;5091857;28;19948;-52
2022/06/15 06:17:07;;;;;;;9.07;3.97;;;;;;;20.16;100.00;101800.41;5092759;28;20272;-49
2022/06/15 06:19:33;;;;;;;13.03;4.47;;;;;;;19.89;100.00;101807.09;5079080;28;20066;-50
2022/06/15 06:21:58;;;;;;;12.18;4.15;;;;;;;20.23;100.00;101811.13;5053801;28;20297;-51
2022/06/15 06:24:24;;;;;;;8.57;4.20;;;;;;;20.47;100.00;101812.78;5082736;28;20067;-49
2022/06/15 06:26:57;;;;;;;9.85;3.72;;;;;;;20.64;100.00;101806.59;5091464;28;20028;-49
2022/06/15 06:29:23;;;;;;;9.13;3.20;;;;;;;20.78;100.00;101815.31;5069001;28;20028;-48
2022/06/15 06:31:48;;;;;;;29.70;12.03;;;;;;;20.57;100.00;101816.78;5080769;28;20275;-50
2022/06/15 06:34:14;;;;;;;20.58;5.30;;;;;;;20.97;100.00;101815.97;5072609;28;20026;-52
2022/06/15 06:36:43;;;;;;;22.48;7.20;;;;;;;20.80;100.00;101813.22;5075045;28;20096;-52
2022/06/15 06:39:15;;;;;;;22.07;7.97;;;;;;;21.41;100.00;101810.00;5058976;28;20053;-51
2022/06/15 06:41:42;;;;;;;15.30;4.90;;;;;;;21.21;100.00;101810.44;5069666;28;20269;-49
2022/06/15 06:44:10;;;;;;;58.50;21.92;;;;;;;22.03;100.00;101821.09;5070712;28;20272;-50
2022/06/15 06:46:36;;;;;;;23.30;7.73;;;;;;;21.08;100.00;101816.19;5066305;28;20043;-50
2022/06/15 06:49:05;;;;;;;17.83;5.82;;;;;;;21.49;100.00;101822.41;5080222;28;20280;-50
2022/06/15 06:51:32;;;;;;;27.53;7.83;;;;;;;21.54;100.00;101817.03;5076191;28;20036;-52
2022/06/15 06:53:57;;;;;;;15.73;6.73;;;;;;;21.88;100.00;101825.22;5056675;28;20323;-50
2022/06/15 06:56:23;;;;;;;24.27;8.88;;;;;;;21.60;100.00;101826.94;5049005;28;20260;-52
2022/06/15 06:58:48;;;;;;;44.43;18.53;;;;;;;21.65;100.00;101825.38;5051561;28;20047;-49
2022/06/15 07:01:14;;;;;;;18.23;7.70;;;;;;;21.69;100.00;101823.84;5075192;28;20076;-53
2022/06/15 07:03:40;;;;;;;61.33;24.13;;;;;;;21.51;100.00;101831.13;5043546;28;20036;-50
2022/06/15 07:06:08;;;;;;;49.60;18.83;;;;;;;21.76;100.00;101838.94;5051271;28;20032;-52
2022/06/15 07:08:33;;;;;;;82.07;28.40;;;;;;;22.59;100.00;101840.19;5059105;28;20088;-50
2022/06/15 07:10:59;;;;;;;25.77;10.05;;;;;;;22.73;100.00;101848.00;5073241;28;20273;-51
2022/06/15 07:13:25;;;;;;;33.47;12.77;;;;;;;21.88;100.00;101840.75;5073381;28;20048;-53
2022/06/15 07:15:51;;;;;;;23.58;9.38;;;;;;;22.01;100.00;101842.31;5061141;28;20024;-50
2022/06/15 07:18:17;;;;;;;21.60;7.05;;;;;;;21.97;100.00;101843.91;5081642;28;20028;-56
2022/06/15 07:20:42;;;;;;;10.32;3.58;;;;;;;22.18;100.00;101851.31;5093054;28;20040;-52
2022/06/15 07:23:08;;;;;;;76.43;27.85;;;;;;;21.83;100.00;101844.22;5092382;28;20051;-51
2022/06/15 07:25:34;;;;;;;25.45;9.38;;;;;;;22.23;100.00;101844.28;5092700;28;20044;-52
2022/06/15 07:28:01;;;;;;;15.15;6.22;;;;;;;22.41;100.00;101848.63;5092128;28;20044;-52
2022/06/15 07:30:27;;;;;;;17.33;6.73;;;;;;;22.23;100.00;101844.28;5091753;28;20032;-50
2022/06/15 07:32:53;;;;;;;;;;;;;;;22.54;100.00;101858.38;5092322;28;20041;-51
2022/06/15 07:35:23;;;;;;;21.30;6.53;;;;;;;23.18;100.00;101856.97;5092814;28;19912;-49
2022/06/15 07:37:51;;;;;;;18.70;5.13;;;;;;;22.89;100.00;101862.66;5092420;28;20087;-52
2022/06/15 07:40:19;;;;;;;20.70;7.40;;;;;;;22.92;100.00;101854.75;5091807;28;20035;-53
2022/06/15 07:42:45;;;;;;;17.70;7.30;;;;;;;23.42;100.00;101854.81;5092430;28;20109;-49
2022/06/15 07:45:12;;;;;;;9.30;3.58;;;;;;;23.59;100.00;101857.41;5092481;28;20044;-52
2022/06/15 07:50:22;;;;;;;14.20;4.77;;;;;;;23.55;96.02;101852.72;5092091;28;20040;-51
2022/06/15 07:52:50;;;;;;;14.70;3.75;;;;;;;23.48;96.02;101855.66;5091966;28;20040;-53
2022/06/15 07:55:20;;;;;;;12.27;3.43;;;;;;;23.34;98.76;101849.78;5080824;28;20037;-53
2022/06/15 07:57:46;;;;;;;7.90;3.20;;;;;;;23.43;93.34;101853.72;5084299;28;20087;-53
2022/06/15 08:00:12;;;;;;;9.38;2.63;;;;;;;23.62;95.99;101845.97;5092111;28;20040;-50
2022/06/15 08:02:40;;;;;;;13.87;3.03;;;;;;;23.63;96.22;101852.25;5089740;28;20048;-50
2022/06/15 08:05:07;;;;;;;9.90;3.30;;;;;;;23.27;92.42;101850.00;5092515;28;20033;-54
2022/06/15 08:07:34;;;;;;;;;;;;;;;23.42;90.48;101848.50;5094957;28;20037;-53
2022/06/15 08:09:59;;;;;;;15.45;2.90;;;;;;;24.60;83.22;101859.53;5094924;28;19912;-49
2022/06/15 08:12:25;;;;;;;7.68;2.75;;;;;;;25.23;78.50;101860.59;5094863;28;20160;-53
2022/06/15 08:14:53;;;;;;;9.85;2.75;;;;;;;25.63;76.75;101848.06;5094984;28;20043;-51
2022/06/15 08:17:26;;;;;;;16.73;3.33;;;;;;;24.09;85.38;101848.25;5093069;28;20033;-50
2022/06/15 08:19:56;;;;;;;9.37;2.80;;;;;;;24.05;84.79;101847.97;5054868;28;20074;-52
2022/06/15 08:22:22;;;;;;;11.07;2.53;;;;;;;24.94;79.62;101858.31;5060770;28;20030;-52
2022/06/15 08:24:49;;;;;;;;;;;;;;;25.40;75.79;101856.78;5051006;28;20077;-51
2022/06/15 08:27:19;;;;;;;28.00;5.73;;;;;;;24.06;87.37;101850.44;5070447;28;19916;-55
2022/06/15 08:29:46;;;;;;;7.03;2.90;;;;;;;24.79;81.99;101855.53;5081446;28;20030;-50
2022/06/15 08:32:12;;;;;;;12.90;4.00;;;;;;;25.63;77.62;101858.19;5066298;28;20091;-53
2022/06/15 08:34:39;;;;;;;8.63;2.70;;;;;;;25.65;75.58;101856.00;5085820;28;20061;-55
2022/06/15 08:37:08;;;;;;;10.87;3.07;;;;;;;25.91;74.93;101858.72;5081231;28;20029;-51
2022/06/15 08:39:33;;;;;;;17.83;3.53;;;;;;;25.97;74.14;101851.34;5061084;28;20050;-52
2022/06/15 08:42:20;;;;;;;9.90;2.83;;;;;;;25.91;73.74;101840.38;5071581;28;20029;-52
2022/06/15 08:45:14;;;;;;;9.85;3.50;;;;;;;25.83;74.78;101842.84;5056991;28;20040;-52
2022/06/15 08:48:07;;;;;;;21.77;2.63;;;;;;;25.33;75.30;101841.44;5061668;28;20036;-51
2022/06/15 08:51:04;;;;;;;14.43;3.50;;;;;;;25.22;80.46;101853.47;5065005;28;20104;-49
2022/06/15 08:54:01;;;;;;;13.35;2.60;;;;;;;25.28;73.96;101841.44;5077521;28;20520;-52
2022/06/15 08:56:36;;;;;;;9.43;3.20;;;;;;;26.16;74.45;101855.19;5069122;28;20032;-53
2022/06/15 08:59:10;;;;;;;15.87;3.50;;;;;;;25.12;84.37;101853.44;5044381;28;20041;-55
2022/06/15 09:01:42;;;;;;;8.67;2.30;;;;;;;26.25;71.31;101852.69;5074112;28;20080;-57
2022/06/15 09:04:46;;;;;;;9.80;2.20;;;;;;;26.59;65.21;101853.97;5073878;28;20055;-61
2022/06/15 09:07:17;;;;;;;8.50;2.20;;;;;;;26.89;66.19;101849.47;5051860;28;20044;-59
2022/06/15 09:10:17;;;;;;;11.87;2.87;;;;;;;26.27;69.11;101855.16;5097111;28;20032;-59
2022/06/15 09:13:01;;;;;;;11.03;3.10;;;;;;;26.65;69.77;101861.06;5090717;28;20032;-57
2022/06/15 09:15:51;;;;;;;9.27;3.40;;;;;;;26.81;70.43;101859.09;5067818;28;20043;-58
2022/06/15 09:18:35;;;;;;;11.93;3.57;;;;;;;26.96;69.15;101858.22;5081146;28;20032;-60
2022/06/15 09:21:04;;;;;;;9.37;2.40;;;;;;;25.90;69.87;101846.97;5093225;28;20075;-53
2022/06/15 09:23:29;;;;;;;15.63;3.30;;;;;;;25.35;78.81;101841.97;5097000;28;20086;-57
2022/06/15 09:26:06;;;;;;;12.70;3.08;;;;;;;25.59;77.61;101849.69;5092618;28;20092;-60
2022/06/15 09:28:55;;;;;;;11.77;3.15;;;;;;;25.84;73.56;101853.56;5092167;28;20086;-62
2022/06/15 09:31:40;;;;;;;7.87;2.60;;;;;;;25.89;74.37;101844.50;5039362;28;20048;-54
2022/06/15 09:34:05;;;;;;;148.63;82.47;;;;;;;26.12;72.22;101843.09;5091655;28;20033;-55
2022/06/15 09:36:42;;;;;;;178.32;104.15;;;;;;;26.03;72.58;101836.53;5091989;28;20120;-55
2022/06/15 09:39:07;;;;;;;45.53;23.90;;;;;;;26.16;73.05;101836.00;5093077;28;20040;-53
2022/06/15 09:41:36;;;;;;;;;;;;;;;26.11;72.02;101835.97;5093316;28;20066;-49
2022/06/15 09:44:19;;;;;;;47.47;23.23;;;;;;;26.79;66.36;101838.53;5096916;28;19912;-55
2022/06/15 09:47:05;;;;;;;123.97;63.97;;;;;;;27.92;63.69;101834.19;5092801;28;20028;-60
2022/06/15 09:50:05;;;;;;;43.13;23.33;;;;;;;27.89;58.57;101849.34;5091467;28;20062;-59
2022/06/15 09:53:04;;;;;;;56.58;30.27;;;;;;;28.52;58.34;101851.47;5090891;28;20082;-55
2022/06/15 09:55:39;;;;;;;68.55;39.42;;;;;;;29.27;55.59;101841.66;5092039;28;20051;-60
2022/06/15 09:58:07;;;;;;;63.03;34.53;;;;;;;29.58;53.44;101838.44;5093833;28;20024;-53
2022/06/15 10:00:36;;;;;;;16.77;8.55;;;;;;;30.29;49.67;101839.41;5092454;28;20030;-58
2022/06/15 10:03:06;;;;;;;30.70;16.42;;;;;;;30.83;47.69;101844.38;5094542;28;20032;-53
2022/06/15 10:05:36;;;;;;;16.67;9.75;;;;;;;30.80;46.33;101851.38;5050412;28;20023;-56
2022/06/15 10:08:12;;;;;;;15.00;7.45;;;;;;;31.50;44.44;101853.09;5089191;28;20029;-55
2022/06/15 10:10:46;;;;;;;15.98;7.15;;;;;;;32.07;43.15;101838.66;5084416;28;20017;-57
2022/06/15 10:13:15;;;;;;;11.32;5.10;;;;;;;32.68;40.67;101840.78;5092451;28;20131;-55
2022/06/15 10:15:43;;;;;;;13.43;4.38;;;;;;;32.96;39.71;101843.28;5092748;28;20051;-51
2022/06/15 10:18:31;;;;;;;12.93;3.10;;;;;;;32.56;40.00;101837.84;5092947;28;20032;-56
2022/06/15 10:21:16;;;;;;;9.63;2.75;;;;;;;33.18;38.28;101836.78;5091977;28;20044;-56
2022/06/15 10:23:58;;;;;;;13.52;3.53;;;;;;;33.57;37.99;101839.69;5092874;28;20044;-57
2022/06/15 10:26:38;;;;;;;5.53;2.78;;;;;;;33.93;37.40;101839.59;5086156;28;20029;-55
2022/06/15 10:29:22;;;;;;;6.15;2.15;;;;;;;33.82;36.98;101844.69;5090492;28;20054;-55
2022/06/15 10:32:09;;;;;;;7.38;2.47;;;;;;;34.16;36.41;101849.31;5090638;28;20044;-53
2022/06/15 10:34:41;;;;;;;8.52;2.40;;;;;;;34.00;36.68;101848.22;5092039;28;20028;-55
2022/06/15 10:37:13;;;;;;;6.50;2.00;;;;;;;34.41;35.47;101841.16;5090246;28;20020;-56
2022/06/15 10:39:43;;;;;;;6.60;2.17;;;;;;;34.43;35.45;101841.66;5092426;28;20067;-53
2022/06/15 10:42:18;;;;;;;5.40;1.77;;;;;;;35.01;34.58;101843.09;5032972;28;20086;-54
2022/06/15 10:44:55;;;;;;;7.43;2.30;;;;;;;35.08;33.93;101848.09;5092504;28;20032;-54
2022/06/15 10:47:31;;;;;;;6.85;1.92;;;;;;;35.34;33.33;101850.63;5092244;28;20128;-54
2022/06/15 10:50:00;;;;;;;12.52;1.85;;;;;;;34.93;33.13;101844.75;5092335;28;20024;-50
2022/06/15 10:52:43;;;;;;;10.73;2.45;;;;;;;35.17;32.85;101844.06;5092464;28;20029;-53
2022/06/15 11:03:41;;;;;;;123.05;83.80;;;;;;;36.32;31.65;101842.81;5091738;28;20043;-51
2022/06/15 11:06:06;;;;;;;84.20;60.00;;;;;;;37.02;31.10;101841.78;5064448;28;20116;-55
2022/06/15 11:08:34;;;;;;;78.70;54.90;;;;;;;36.76;31.54;101838.59;5089756;28;20021;-54
2022/06/15 11:11:11;;;;;;;73.65;50.05;;;;;;;36.90;31.04;101839.00;5046531;28;20021;-53
2022/06/15 11:13:42;;;;;;;49.42;34.97;;;;;;;36.86;30.83;101840.88;5090085;28;20143;-55
2022/06/15 11:19:16;;;;;;;32.50;20.25;;;;;;;37.48;29.10;101835.06;5075969;28;20044;-53
2022/06/15 11:21:53;;;;;;;22.60;15.43;;;;;;;38.07;28.51;101827.03;4993091;28;20099;-52
2022/06/15 11:24:50;;;;;;;19.83;13.57;;;;;;;38.01;28.56;101832.06;5004185;28;20048;-56
2022/06/15 11:27:39;;;;;;;15.30;9.55;;;;;;;38.79;28.46;101830.63;4994156;28;20055;-55
2022/06/15 11:30:26;;;;;;;16.10;9.65;;;;;;;38.47;26.87;101827.94;4995950;28;20093;-52
2022/06/15 11:33:13;;;;;;;13.32;7.45;;;;;;;38.23;27.93;101828.97;4995070;28;20038;-53
2022/06/15 11:35:56;;;;;;;8.98;5.68;;;;;;;38.41;27.85;101832.97;4993447;28;20042;-54
2022/06/15 11:38:42;;;;;;;12.35;5.10;;;;;;;38.50;28.04;101837.56;4993800;28;20030;-56
2022/06/15 11:41:18;;;;;;;7.95;4.00;;;;;;;38.38;27.76;101828.13;4997485;28;20112;-51
2022/06/15 11:43:45;;;;;;;7.32;3.70;;;;;;;38.54;27.68;101835.69;5006089;28;20042;-54
2022/06/15 11:46:36;;;;;;;6.50;3.20;;;;;;;39.38;26.45;101829.78;4998616;28;20030;-53
2022/06/15 11:49:23;;;;;;;6.32;2.92;;;;;;;39.76;26.08;101830.84;4999049;28;20053;-54
2022/06/15 11:52:25;;;;;;;8.18;2.70;;;;;;;39.33;26.37;101832.88;4997574;28;20056;-54
2022/06/15 11:55:20;;;;;;;6.65;2.50;;;;;;;39.63;25.94;101832.22;5000576;28;20035;-52
2022/06/15 11:58:04;;;;;;;5.07;2.22;;;;;;;40.24;25.56;101830.41;4996198;28;20103;-54